sensor_id;sensor_type;location;lat;lon;timestamp;temperature;humidity
70550;DHT22;58101;48.658;2.328;2023-04-03T00:01:13;7.50;99.90
70550;DHT22;58101;48.658;2.328;2023-04-03T00:03:38;7.50;99.90
70550;DHT22;58101;48.658;2.328;2023-04-03T00:06:04;7.60;99.90
70550;DHT22;58101;48.658;2.328;2023-04-03T00:08:32;7.50;99.90
70550;DHT22;58101;48.658;2.328;2023-04-03T00:10:58;7.60;99.90
70550;DHT22;58101;48.658;2.328;2023-04-03T00:13:23;7.60;99.90
70550;DHT22;58101;48.658;2.328;2023-04-03T00:15:51;7.60;99.90
70550;DHT22;58101;48.658;2.328;2023-04-03T00:18:17;7.50;99.90
70550;DHT22;58101;48.658;2.328;2023-04-03T00:20:42;7.50;99.90
70550;DHT22;58101;48.658;2.328;2023-04-03T00:23:08;7.60;99.90
70550;DHT22;58101;48.658;2.328;2023-04-03T00:25:34;7.60;99.90
70550;DHT22;58101;48.658;2.328;2023-04-03T00:28:00;7.60;99.90
70550;DHT22;58101;48.658;2.328;2023-04-03T00:30:26;7.60;99.90
70550;DHT22;58101;48.658;2.328;2023-04-03T00:32:52;7.60;99.90
70550;DHT22;58101;48.658;2.328;2023-04-03T00:35:19;7.60;99.90
70550;DHT22;58101;48.658;2.328;2023-04-03T00:37:45;7.60;99.90
70550;DHT22;58101;48.658;2.328;2023-04-03T00:40:13;7.60;99.90
70550;DHT22;58101;48.658;2.328;2023-04-03T00:42:40;7.60;99.90
70550;DHT22;58101;48.658;2.328;2023-04-03T00:47:39;7.60;99.90
70550;DHT22;58101;48.658;2.328;2023-04-03T00:50:06;7.60;99.90
70550;DHT22;58101;48.658;2.328;2023-04-03T00:52:32;7.60;99.90
70550;DHT22;58101;48.658;2.328;2023-04-03T00:55:04;7.70;99.90
70550;DHT22;58101;48.658;2.328;2023-04-03T00:57:31;7.60;99.90
70550;DHT22;58101;48.658;2.328;2023-04-03T01:00:03;7.60;99.90
70550;DHT22;58101;48.658;2.328;2023-04-03T01:02:30;7.60;99.90
70550;DHT22;58101;48.658;2.328;2023-04-03T01:04:55;7.60;99.90
70550;DHT22;58101;48.658;2.328;2023-04-03T01:07:24;7.70;99.90
70550;DHT22;58101;48.658;2.328;2023-04-03T01:09:55;7.50;99.90
70550;DHT22;58101;48.658;2.328;2023-04-03T01:14:52;7.60;99.90
70550;DHT22;58101;48.658;2.328;2023-04-03T01:17:39;7.60;99.90
70550;DHT22;58101;48.658;2.328;2023-04-03T01:23:11;7.60;99.90
70550;DHT22;58101;48.658;2.328;2023-04-03T01:28:10;7.60;99.90
70550;DHT22;58101;48.658;2.328;2023-04-03T01:30:43;7.60;99.90
70550;DHT22;58101;48.658;2.328;2023-04-03T01:33:10;7.60;99.90
70550;DHT22;58101;48.658;2.328;2023-04-03T01:35:37;7.50;99.90
70550;DHT22;58101;48.658;2.328;2023-04-03T01:38:03;7.50;99.90
70550;DHT22;58101;48.658;2.328;2023-04-03T01:40:28;7.50;99.90
70550;DHT22;58101;48.658;2.328;2023-04-03T01:42:54;7.60;99.90
70550;DHT22;58101;48.658;2.328;2023-04-03T01:45:20;7.50;99.90
70550;DHT22;58101;48.658;2.328;2023-04-03T01:47:45;7.50;99.90
70550;DHT22;58101;48.658;2.328;2023-04-03T01:50:11;7.50;99.90
70550;DHT22;58101;48.658;2.328;2023-04-03T01:52:37;7.50;99.90
70550;DHT22;58101;48.658;2.328;2023-04-03T01:55:02;7.50;99.90
70550;DHT22;58101;48.658;2.328;2023-04-03T01:57:28;7.50;99.90
70550;DHT22;58101;48.658;2.328;2023-04-03T01:59:54;7.50;99.90
70550;DHT22;58101;48.658;2.328;2023-04-03T02:02:19;7.50;99.90
70550;DHT22;58101;48.658;2.328;2023-04-03T02:04:45;7.50;99.90
70550;DHT22;58101;48.658;2.328;2023-04-03T02:07:11;7.50;99.90
70550;DHT22;58101;48.658;2.328;2023-04-03T02:09:37;7.40;99.90
70550;DHT22;58101;48.658;2.328;2023-04-03T02:12:02;7.50;99.90
70550;DHT22;58101;48.658;2.328;2023-04-03T02:14:28;7.50;99.90
70550;DHT22;58101;48.658;2.328;2023-04-03T02:16:54;7.40;99.90
70550;DHT22;58101;48.658;2.328;2023-04-03T02:19:19;7.60;99.90
70550;DHT22;58101;48.658;2.328;2023-04-03T02:21:45;7.50;99.90
70550;DHT22;58101;48.658;2.328;2023-04-03T02:24:11;7.50;99.90
70550;DHT22;58101;48.658;2.328;2023-04-03T02:26:36;7.50;99.90
70550;DHT22;58101;48.658;2.328;2023-04-03T02:29:03;7.50;99.90
70550;DHT22;58101;48.658;2.328;2023-04-03T02:31:29;7.50;99.90
70550;DHT22;58101;48.658;2.328;2023-04-03T02:33:54;7.50;99.90
70550;DHT22;58101;48.658;2.328;2023-04-03T02:36:20;7.40;99.90
70550;DHT22;58101;48.658;2.328;2023-04-03T02:38:46;7.40;99.90
70550;DHT22;58101;48.658;2.328;2023-04-03T02:41:12;7.40;99.90
70550;DHT22;58101;48.658;2.328;2023-04-03T02:43:38;7.40;99.90
70550;DHT22;58101;48.658;2.328;2023-04-03T02:46:04;7.30;99.90
70550;DHT22;58101;48.658;2.328;2023-04-03T02:48:30;7.40;99.90
70550;DHT22;58101;48.658;2.328;2023-04-03T02:50:56;7.40;99.90
70550;DHT22;58101;48.658;2.328;2023-04-03T02:53:23;7.30;99.90
70550;DHT22;58101;48.658;2.328;2023-04-03T02:55:48;7.30;99.90
70550;DHT22;58101;48.658;2.328;2023-04-03T02:58:14;7.50;99.90
70550;DHT22;58101;48.658;2.328;2023-04-03T03:00:40;7.50;99.90
70550;DHT22;58101;48.658;2.328;2023-04-03T03:03:06;7.40;99.90
70550;DHT22;58101;48.658;2.328;2023-04-03T03:05:32;7.40;99.90
70550;DHT22;58101;48.658;2.328;2023-04-03T03:07:58;7.30;99.90
70550;DHT22;58101;48.658;2.328;2023-04-03T03:10:24;7.40;99.90
70550;DHT22;58101;48.658;2.328;2023-04-03T03:12:49;7.40;99.90
70550;DHT22;58101;48.658;2.328;2023-04-03T03:15:15;7.40;99.90
70550;DHT22;58101;48.658;2.328;2023-04-03T03:17:43;7.40;99.90
70550;DHT22;58101;48.658;2.328;2023-04-03T03:20:09;7.30;99.90
70550;DHT22;58101;48.658;2.328;2023-04-03T03:22:35;7.40;99.90
70550;DHT22;58101;48.658;2.328;2023-04-03T03:25:01;7.40;99.90
70550;DHT22;58101;48.658;2.328;2023-04-03T03:27:27;7.40;99.90
70550;DHT22;58101;48.658;2.328;2023-04-03T03:29:53;7.30;99.90
70550;DHT22;58101;48.658;2.328;2023-04-03T03:32:19;7.30;99.90
70550;DHT22;58101;48.658;2.328;2023-04-03T03:34:44;7.30;99.90
70550;DHT22;58101;48.658;2.328;2023-04-03T03:37:10;7.30;99.90
70550;DHT22;58101;48.658;2.328;2023-04-03T03:39:36;7.30;99.90
70550;DHT22;58101;48.658;2.328;2023-04-03T03:42:01;7.30;99.90
70550;DHT22;58101;48.658;2.328;2023-04-03T03:44:27;7.30;99.90
70550;DHT22;58101;48.658;2.328;2023-04-03T03:46:54;7.30;99.90
70550;DHT22;58101;48.658;2.328;2023-04-03T03:49:20;7.40;99.90
70550;DHT22;58101;48.658;2.328;2023-04-03T03:51:46;7.40;99.90
70550;DHT22;58101;48.658;2.328;2023-04-03T03:54:12;7.30;99.90
70550;DHT22;58101;48.658;2.328;2023-04-03T03:56:38;7.30;99.90
70550;DHT22;58101;48.658;2.328;2023-04-03T03:59:04;7.30;99.90
70550;DHT22;58101;48.658;2.328;2023-04-03T04:01:29;7.30;99.90
70550;DHT22;58101;48.658;2.328;2023-04-03T04:03:56;7.20;99.90
70550;DHT22;58101;48.658;2.328;2023-04-03T04:06:22;7.20;99.90
70550;DHT22;58101;48.658;2.328;2023-04-03T04:08:47;7.20;99.90
70550;DHT22;58101;48.658;2.328;2023-04-03T04:11:13;7.20;99.90
70550;DHT22;58101;48.658;2.328;2023-04-03T04:13:39;7.20;99.90
70550;DHT22;58101;48.658;2.328;2023-04-03T04:16:05;7.20;99.90
70550;DHT22;58101;48.658;2.328;2023-04-03T04:18:31;7.20;99.90
70550;DHT22;58101;48.658;2.328;2023-04-03T04:20:56;7.20;99.90
70550;DHT22;58101;48.658;2.328;2023-04-03T04:23:22;7.20;99.90
70550;DHT22;58101;48.658;2.328;2023-04-03T04:25:48;7.30;99.90
70550;DHT22;58101;48.658;2.328;2023-04-03T04:28:15;7.20;99.90
70550;DHT22;58101;48.658;2.328;2023-04-03T04:30:41;7.30;99.90
70550;DHT22;58101;48.658;2.328;2023-04-03T04:33:06;7.30;99.90
70550;DHT22;58101;48.658;2.328;2023-04-03T04:35:32;7.30;99.90
70550;DHT22;58101;48.658;2.328;2023-04-03T04:37:58;7.30;99.90
70550;DHT22;58101;48.658;2.328;2023-04-03T04:40:24;7.20;99.90
70550;DHT22;58101;48.658;2.328;2023-04-03T04:42:50;7.20;99.90
70550;DHT22;58101;48.658;2.328;2023-04-03T04:45:15;7.20;99.90
70550;DHT22;58101;48.658;2.328;2023-04-03T04:47:41;7.20;99.90
70550;DHT22;58101;48.658;2.328;2023-04-03T04:50:07;7.20;99.90
70550;DHT22;58101;48.658;2.328;2023-04-03T04:52:33;7.20;99.90
70550;DHT22;58101;48.658;2.328;2023-04-03T04:54:59;7.20;99.90
70550;DHT22;58101;48.658;2.328;2023-04-03T04:57:25;7.20;99.90
70550;DHT22;58101;48.658;2.328;2023-04-03T04:59:51;7.10;99.90
70550;DHT22;58101;48.658;2.328;2023-04-03T05:02:17;7.10;99.90
70550;DHT22;58101;48.658;2.328;2023-04-03T05:04:43;7.20;99.90
70550;DHT22;58101;48.658;2.328;2023-04-03T05:07:09;7.10;99.90
70550;DHT22;58101;48.658;2.328;2023-04-03T05:09:35;7.10;99.90
70550;DHT22;58101;48.658;2.328;2023-04-03T05:12:00;7.10;99.90
70550;DHT22;58101;48.658;2.328;2023-04-03T05:14:28;7.10;99.90
70550;DHT22;58101;48.658;2.328;2023-04-03T05:16:53;7.10;99.90
70550;DHT22;58101;48.658;2.328;2023-04-03T05:19:20;7.10;99.90
70550;DHT22;58101;48.658;2.328;2023-04-03T05:21:48;7.10;99.90
70550;DHT22;58101;48.658;2.328;2023-04-03T05:24:14;7.10;99.90
70550;DHT22;58101;48.658;2.328;2023-04-03T05:26:41;7.10;99.90
70550;DHT22;58101;48.658;2.328;2023-04-03T05:29:07;7.10;99.90
70550;DHT22;58101;48.658;2.328;2023-04-03T05:31:33;7.10;99.90
70550;DHT22;58101;48.658;2.328;2023-04-03T05:33:59;7.20;99.90
70550;DHT22;58101;48.658;2.328;2023-04-03T05:36:27;7.00;99.90
70550;DHT22;58101;48.658;2.328;2023-04-03T05:38:53;7.00;99.90
70550;DHT22;58101;48.658;2.328;2023-04-03T05:41:21;7.00;99.90
70550;DHT22;58101;48.658;2.328;2023-04-03T05:43:47;7.00;99.90
70550;DHT22;58101;48.658;2.328;2023-04-03T05:46:15;7.00;99.90
70550;DHT22;58101;48.658;2.328;2023-04-03T05:48:42;7.00;99.90
70550;DHT22;58101;48.658;2.328;2023-04-03T05:51:13;6.90;99.90
70550;DHT22;58101;48.658;2.328;2023-04-03T05:53:39;6.90;99.90
70550;DHT22;58101;48.658;2.328;2023-04-03T05:56:05;7.00;99.90
70550;DHT22;58101;48.658;2.328;2023-04-03T05:58:31;7.00;99.90
70550;DHT22;58101;48.658;2.328;2023-04-03T06:00:56;7.00;99.90
70550;DHT22;58101;48.658;2.328;2023-04-03T06:03:23;7.00;99.90
70550;DHT22;58101;48.658;2.328;2023-04-03T06:05:48;7.00;99.90
70550;DHT22;58101;48.658;2.328;2023-04-03T06:08:14;7.00;99.90
70550;DHT22;58101;48.658;2.328;2023-04-03T06:10:40;7.00;99.90
70550;DHT22;58101;48.658;2.328;2023-04-03T06:13:06;7.00;99.90
70550;DHT22;58101;48.658;2.328;2023-04-03T06:15:32;7.10;99.90
70550;DHT22;58101;48.658;2.328;2023-04-03T06:17:59;7.10;99.90
70550;DHT22;58101;48.658;2.328;2023-04-03T06:20:25;7.00;99.90
70550;DHT22;58101;48.658;2.328;2023-04-03T06:22:50;7.00;99.90
70550;DHT22;58101;48.658;2.328;2023-04-03T06:25:16;7.10;99.90
70550;DHT22;58101;48.658;2.328;2023-04-03T06:27:44;7.00;99.90
70550;DHT22;58101;48.658;2.328;2023-04-03T06:30:10;7.00;99.90
70550;DHT22;58101;48.658;2.328;2023-04-03T06:32:37;7.10;99.90
70550;DHT22;58101;48.658;2.328;2023-04-03T06:35:03;7.10;99.90
70550;DHT22;58101;48.658;2.328;2023-04-03T06:37:29;7.10;99.90
70550;DHT22;58101;48.658;2.328;2023-04-03T06:39:56;7.10;99.90
70550;DHT22;58101;48.658;2.328;2023-04-03T06:42:25;7.10;99.90
70550;DHT22;58101;48.658;2.328;2023-04-03T06:44:51;7.10;99.90
70550;DHT22;58101;48.658;2.328;2023-04-03T06:47:17;7.10;99.90
70550;DHT22;58101;48.658;2.328;2023-04-03T06:49:43;7.10;99.90
70550;DHT22;58101;48.658;2.328;2023-04-03T06:52:10;7.10;99.90
70550;DHT22;58101;48.658;2.328;2023-04-03T06:54:38;7.20;99.90
70550;DHT22;58101;48.658;2.328;2023-04-03T06:57:39;7.20;99.90
70550;DHT22;58101;48.658;2.328;2023-04-03T07:00:06;7.20;99.90
70550;DHT22;58101;48.658;2.328;2023-04-03T07:02:32;7.20;99.90
70550;DHT22;58101;48.658;2.328;2023-04-03T07:04:58;7.20;99.90
70550;DHT22;58101;48.658;2.328;2023-04-03T07:07:24;7.20;99.90
70550;DHT22;58101;48.658;2.328;2023-04-03T07:09:49;7.20;99.90
70550;DHT22;58101;48.658;2.328;2023-04-03T07:12:15;7.20;99.90
70550;DHT22;58101;48.658;2.328;2023-04-03T07:14:41;7.20;99.90
70550;DHT22;58101;48.658;2.328;2023-04-03T07:17:07;7.20;99.90
70550;DHT22;58101;48.658;2.328;2023-04-03T07:19:33;7.30;99.90
70550;DHT22;58101;48.658;2.328;2023-04-03T07:21:59;7.30;99.90
70550;DHT22;58101;48.658;2.328;2023-04-03T07:24:25;7.20;99.90
70550;DHT22;58101;48.658;2.328;2023-04-03T07:26:52;7.30;99.90
70550;DHT22;58101;48.658;2.328;2023-04-03T07:29:18;7.30;99.90
70550;DHT22;58101;48.658;2.328;2023-04-03T07:31:44;7.30;99.90
70550;DHT22;58101;48.658;2.328;2023-04-03T07:34:10;7.40;99.90
70550;DHT22;58101;48.658;2.328;2023-04-03T07:36:36;7.50;99.90
70550;DHT22;58101;48.658;2.328;2023-04-03T07:39:03;7.50;99.30
70550;DHT22;58101;48.658;2.328;2023-04-03T07:41:28;7.50;99.90
70550;DHT22;58101;48.658;2.328;2023-04-03T07:43:55;7.70;99.90
70550;DHT22;58101;48.658;2.328;2023-04-03T07:46:22;7.70;99.90
70550;DHT22;58101;48.658;2.328;2023-04-03T07:48:48;7.70;99.90
70550;DHT22;58101;48.658;2.328;2023-04-03T07:51:13;7.80;99.50
70550;DHT22;58101;48.658;2.328;2023-04-03T07:53:40;7.80;98.30
70550;DHT22;58101;48.658;2.328;2023-04-03T07:56:06;7.90;98.60
70550;DHT22;58101;48.658;2.328;2023-04-03T07:58:32;7.90;97.90
70550;DHT22;58101;48.658;2.328;2023-04-03T08:00:58;7.90;98.20
70550;DHT22;58101;48.658;2.328;2023-04-03T08:03:24;8.00;98.90
70550;DHT22;58101;48.658;2.328;2023-04-03T08:05:50;8.10;97.20
70550;DHT22;58101;48.658;2.328;2023-04-03T08:08:18;8.20;96.70
70550;DHT22;58101;48.658;2.328;2023-04-03T08:10:48;8.40;96.70
70550;DHT22;58101;48.658;2.328;2023-04-03T08:13:15;8.40;94.90
70550;DHT22;58101;48.658;2.328;2023-04-03T08:15:40;8.50;94.50
70550;DHT22;58101;48.658;2.328;2023-04-03T08:18:06;8.60;93.80
70550;DHT22;58101;48.658;2.328;2023-04-03T08:20:31;8.80;93.60
70550;DHT22;58101;48.658;2.328;2023-04-03T08:22:57;8.90;93.70
70550;DHT22;58101;48.658;2.328;2023-04-03T08:25:23;9.00;91.80
70550;DHT22;58101;48.658;2.328;2023-04-03T08:27:48;9.10;90.00
70550;DHT22;58101;48.658;2.328;2023-04-03T08:30:14;9.30;86.20
70550;DHT22;58101;48.658;2.328;2023-04-03T08:32:40;9.50;89.30
70550;DHT22;58101;48.658;2.328;2023-04-03T08:35:08;9.90;85.70
70550;DHT22;58101;48.658;2.328;2023-04-03T08:37:38;10.00;80.20
70550;DHT22;58101;48.658;2.328;2023-04-03T08:40:06;10.30;77.80
70550;DHT22;58101;48.658;2.328;2023-04-03T08:42:41;10.40;74.90
70550;DHT22;58101;48.658;2.328;2023-04-03T08:45:42;10.80;72.20
70550;DHT22;58101;48.658;2.328;2023-04-03T08:48:16;11.20;69.50
70550;DHT22;58101;48.658;2.328;2023-04-03T08:51:12;11.40;64.60
70550;DHT22;58101;48.658;2.328;2023-04-03T08:54:18;11.30;61.50
70550;DHT22;58101;48.658;2.328;2023-04-03T08:57:06;10.90;61.90
70550;DHT22;58101;48.658;2.328;2023-04-03T08:59:37;10.60;63.30
70550;DHT22;58101;48.658;2.328;2023-04-03T09:56:30;12.40;59.40
70550;DHT22;58101;48.658;2.328;2023-04-03T10:01:34;15.50;49.30
70550;DHT22;58101;48.658;2.328;2023-04-03T10:06:36;15.80;46.30
70550;DHT22;58101;48.658;2.328;2023-04-03T10:09:15;15.50;46.50
70550;DHT22;58101;48.658;2.328;2023-04-03T10:12:10;15.30;46.70
70550;DHT22;58101;48.658;2.328;2023-04-03T10:14:39;15.00;46.90
70550;DHT22;58101;48.658;2.328;2023-04-03T10:19:45;15.10;47.30
70550;DHT22;58101;48.658;2.328;2023-04-03T10:30:50;19.60;38.00
70550;DHT22;58101;48.658;2.328;2023-04-03T10:33:37;20.80;34.90
70550;DHT22;58101;48.658;2.328;2023-04-03T10:42:10;21.40;33.00
70550;DHT22;58101;48.658;2.328;2023-04-03T10:48:11;22.90;31.80
70550;DHT22;58101;48.658;2.328;2023-04-03T10:51:06;23.70;29.30
70550;DHT22;58101;48.658;2.328;2023-04-03T10:56:25;24.10;27.50
70550;DHT22;58101;48.658;2.328;2023-04-03T10:59:13;24.50;27.80
70550;DHT22;58101;48.658;2.328;2023-04-03T11:01:42;24.90;27.30
70550;DHT22;58101;48.658;2.328;2023-04-03T11:04:10;25.20;26.60
70550;DHT22;58101;48.658;2.328;2023-04-03T11:07:28;25.50;26.70
70550;DHT22;58101;48.658;2.328;2023-04-03T11:09:56;25.40;25.90
70550;DHT22;58101;48.658;2.328;2023-04-03T11:12:36;25.30;26.50
70550;DHT22;58101;48.658;2.328;2023-04-03T11:15:04;25.30;25.30
70550;DHT22;58101;48.658;2.328;2023-04-03T11:17:41;25.20;25.30
70550;DHT22;58101;48.658;2.328;2023-04-03T11:20:23;25.10;25.80
70550;DHT22;58101;48.658;2.328;2023-04-03T11:23:03;25.10;25.80
70550;DHT22;58101;48.658;2.328;2023-04-03T11:25:33;25.40;25.50
70550;DHT22;58101;48.658;2.328;2023-04-03T11:28:02;25.50;26.30
70550;DHT22;58101;48.658;2.328;2023-04-03T11:33:15;25.50;24.40
70550;DHT22;58101;48.658;2.328;2023-04-03T11:35:47;25.10;23.70
70550;DHT22;58101;48.658;2.328;2023-04-03T11:38:33;25.00;25.20
70550;DHT22;58101;48.658;2.328;2023-04-03T11:41:05;24.70;25.10
70550;DHT22;58101;48.658;2.328;2023-04-03T11:43:33;24.50;24.60
70550;DHT22;58101;48.658;2.328;2023-04-03T11:46:06;24.30;24.60
70550;DHT22;58101;48.658;2.328;2023-04-03T11:51:02;23.20;25.20
70550;DHT22;58101;48.658;2.328;2023-04-03T11:53:48;22.70;27.10
70550;DHT22;58101;48.658;2.328;2023-04-03T11:56:34;22.40;27.50
70550;DHT22;58101;48.658;2.328;2023-04-03T12:01:56;22.10;28.30
70550;DHT22;58101;48.658;2.328;2023-04-03T12:04:25;21.90;29.10
70550;DHT22;58101;48.658;2.328;2023-04-03T12:06:59;21.60;28.60
70550;DHT22;58101;48.658;2.328;2023-04-03T12:09:29;21.50;29.50
70550;DHT22;58101;48.658;2.328;2023-04-03T12:11:59;21.10;29.20
70550;DHT22;58101;48.658;2.328;2023-04-03T12:14:27;20.90;29.60
70550;DHT22;58101;48.658;2.328;2023-04-03T12:16:55;20.90;29.40
70550;DHT22;58101;48.658;2.328;2023-04-03T12:19:35;20.60;30.00
70550;DHT22;58101;48.658;2.328;2023-04-03T12:24:29;20.30;30.80
70550;DHT22;58101;48.658;2.328;2023-04-03T12:45:23;19.00;32.10
70550;DHT22;58101;48.658;2.328;2023-04-03T12:47:53;18.90;32.20
70550;DHT22;58101;48.658;2.328;2023-04-03T12:50:31;18.90;34.10
70550;DHT22;58101;48.658;2.328;2023-04-03T12:53:10;18.90;35.00
70550;DHT22;58101;48.658;2.328;2023-04-03T12:55:37;18.80;33.90
70550;DHT22;58101;48.658;2.328;2023-04-03T12:58:22;18.70;33.60
70550;DHT22;58101;48.658;2.328;2023-04-03T13:01:04;18.30;32.80
70550;DHT22;58101;48.658;2.328;2023-04-03T13:03:37;18.20;35.20
70550;DHT22;58101;48.658;2.328;2023-04-03T13:06:04;18.20;35.50
70550;DHT22;58101;48.658;2.328;2023-04-03T13:08:30;18.00;35.40
70550;DHT22;58101;48.658;2.328;2023-04-03T13:11:14;18.10;35.50
70550;DHT22;58101;48.658;2.328;2023-04-03T13:13:57;18.00;35.60
70550;DHT22;58101;48.658;2.328;2023-04-03T13:16:23;17.80;35.50
70550;DHT22;58101;48.658;2.328;2023-04-03T13:18:51;17.70;35.50
70550;DHT22;58101;48.658;2.328;2023-04-03T13:21:24;17.70;36.40
70550;DHT22;58101;48.658;2.328;2023-04-03T13:23:54;17.60;36.60
70550;DHT22;58101;48.658;2.328;2023-04-03T13:26:22;17.70;35.90
70550;DHT22;58101;48.658;2.328;2023-04-03T13:28:49;17.60;35.80
70550;DHT22;58101;48.658;2.328;2023-04-03T13:31:36;17.30;36.50
70550;DHT22;58101;48.658;2.328;2023-04-03T13:34:13;17.30;37.20
70550;DHT22;58101;48.658;2.328;2023-04-03T13:36:54;17.10;37.70
70550;DHT22;58101;48.658;2.328;2023-04-03T13:41:53;16.70;38.10
70550;DHT22;58101;48.658;2.328;2023-04-03T13:46:48;16.50;39.10
70550;DHT22;58101;48.658;2.328;2023-04-03T13:49:20;16.30;38.70
70550;DHT22;58101;48.658;2.328;2023-04-03T13:51:46;16.30;40.90
70550;DHT22;58101;48.658;2.328;2023-04-03T13:54:58;16.30;38.90
70550;DHT22;58101;48.658;2.328;2023-04-03T13:57:00;16.30;39.30
70550;DHT22;58101;48.658;2.328;2023-04-03T13:59:34;16.20;39.00
70550;DHT22;58101;48.658;2.328;2023-04-03T14:07:12;15.90;40.00
70550;DHT22;58101;48.658;2.328;2023-04-03T14:09:39;15.90;40.40
70550;DHT22;58101;48.658;2.328;2023-04-03T14:12:08;15.80;41.90
70550;DHT22;58101;48.658;2.328;2023-04-03T14:14:36;15.60;40.30
70550;DHT22;58101;48.658;2.328;2023-04-03T14:17:14;15.60;41.40
70550;DHT22;58101;48.658;2.328;2023-04-03T14:19:41;15.70;40.90
70550;DHT22;58101;48.658;2.328;2023-04-03T14:22:18;15.80;41.50
70550;DHT22;58101;48.658;2.328;2023-04-03T14:24:44;15.80;42.60
70550;DHT22;58101;48.658;2.328;2023-04-03T14:29:42;15.80;41.00
70550;DHT22;58101;48.658;2.328;2023-04-03T14:32:12;15.80;40.00
70550;DHT22;58101;48.658;2.328;2023-04-03T14:34:38;15.70;40.40
70550;DHT22;58101;48.658;2.328;2023-04-03T14:37:05;15.80;40.70
70550;DHT22;58101;48.658;2.328;2023-04-03T14:39:34;15.80;40.60
70550;DHT22;58101;48.658;2.328;2023-04-03T14:42:00;15.70;40.20
70550;DHT22;58101;48.658;2.328;2023-04-03T14:44:25;15.60;39.10
70550;DHT22;58101;48.658;2.328;2023-04-03T14:46:51;15.60;40.90
70550;DHT22;58101;48.658;2.328;2023-04-03T14:49:22;15.50;40.30
70550;DHT22;58101;48.658;2.328;2023-04-03T14:51:49;15.50;40.40
70550;DHT22;58101;48.658;2.328;2023-04-03T14:54:20;15.40;41.30
70550;DHT22;58101;48.658;2.328;2023-04-03T14:56:51;15.40;41.30
70550;DHT22;58101;48.658;2.328;2023-04-03T14:59:17;15.30;41.10
70550;DHT22;58101;48.658;2.328;2023-04-03T15:01:45;15.30;41.90
70550;DHT22;58101;48.658;2.328;2023-04-03T15:04:19;15.20;41.60
70550;DHT22;58101;48.658;2.328;2023-04-03T15:06:46;15.20;41.40
70550;DHT22;58101;48.658;2.328;2023-04-03T15:09:24;15.10;42.00
70550;DHT22;58101;48.658;2.328;2023-04-03T15:11:51;15.10;41.10
70550;DHT22;58101;48.658;2.328;2023-04-03T15:14:18;15.10;41.60
70550;DHT22;58101;48.658;2.328;2023-04-03T15:16:44;15.10;42.50
70550;DHT22;58101;48.658;2.328;2023-04-03T15:19:10;15.10;41.70
70550;DHT22;58101;48.658;2.328;2023-04-03T15:21:36;15.00;42.10
70550;DHT22;58101;48.658;2.328;2023-04-03T15:24:02;14.90;42.70
70550;DHT22;58101;48.658;2.328;2023-04-03T15:26:29;14.80;42.80
70550;DHT22;58101;48.658;2.328;2023-04-03T15:28:55;14.70;41.90
70550;DHT22;58101;48.658;2.328;2023-04-03T15:31:20;14.60;41.80
70550;DHT22;58101;48.658;2.328;2023-04-03T15:33:46;14.50;43.00
70550;DHT22;58101;48.658;2.328;2023-04-03T15:36:12;14.40;43.10
70550;DHT22;58101;48.658;2.328;2023-04-03T15:38:37;14.40;43.80
70550;DHT22;58101;48.658;2.328;2023-04-03T15:41:04;14.40;44.40
70550;DHT22;58101;48.658;2.328;2023-04-03T15:43:30;14.40;44.20
70550;DHT22;58101;48.658;2.328;2023-04-03T15:45:59;14.30;43.90
70550;DHT22;58101;48.658;2.328;2023-04-03T15:48:26;14.30;46.70
70550;DHT22;58101;48.658;2.328;2023-04-03T15:50:54;14.30;44.30
70550;DHT22;58101;48.658;2.328;2023-04-03T15:53:20;14.30;43.60
70550;DHT22;58101;48.658;2.328;2023-04-03T15:55:45;14.20;43.40
70550;DHT22;58101;48.658;2.328;2023-04-03T15:58:14;14.10;43.00
70550;DHT22;58101;48.658;2.328;2023-04-03T16:00:40;14.10;43.80
70550;DHT22;58101;48.658;2.328;2023-04-03T16:03:10;13.90;43.80
70550;DHT22;58101;48.658;2.328;2023-04-03T16:05:37;13.90;44.30
70550;DHT22;58101;48.658;2.328;2023-04-03T16:08:04;13.90;45.70
70550;DHT22;58101;48.658;2.328;2023-04-03T16:10:30;13.80;44.80
70550;DHT22;58101;48.658;2.328;2023-04-03T16:12:56;13.80;44.50
70550;DHT22;58101;48.658;2.328;2023-04-03T16:15:27;13.70;45.40
70550;DHT22;58101;48.658;2.328;2023-04-03T16:17:54;13.70;46.20
70550;DHT22;58101;48.658;2.328;2023-04-03T16:20:20;13.70;45.80
70550;DHT22;58101;48.658;2.328;2023-04-03T16:22:47;13.70;45.20
70550;DHT22;58101;48.658;2.328;2023-04-03T16:25:13;13.60;46.30
70550;DHT22;58101;48.658;2.328;2023-04-03T16:27:39;13.50;46.40
70550;DHT22;58101;48.658;2.328;2023-04-03T16:30:06;13.50;46.00
70550;DHT22;58101;48.658;2.328;2023-04-03T16:32:32;13.50;46.50
70550;DHT22;58101;48.658;2.328;2023-04-03T16:34:58;13.50;47.00
70550;DHT22;58101;48.658;2.328;2023-04-03T16:37:24;13.40;47.00
70550;DHT22;58101;48.658;2.328;2023-04-03T16:39:50;13.30;46.90
70550;DHT22;58101;48.658;2.328;2023-04-03T16:42:16;13.30;46.60
70550;DHT22;58101;48.658;2.328;2023-04-03T16:44:41;13.30;48.50
70550;DHT22;58101;48.658;2.328;2023-04-03T16:47:07;13.20;47.40
70550;DHT22;58101;48.658;2.328;2023-04-03T16:49:38;13.20;48.00
70550;DHT22;58101;48.658;2.328;2023-04-03T16:52:04;13.20;47.70
70550;DHT22;58101;48.658;2.328;2023-04-03T16:54:30;13.20;48.40
70550;DHT22;58101;48.658;2.328;2023-04-03T16:56:56;13.10;48.80
70550;DHT22;58101;48.658;2.328;2023-04-03T16:59:22;13.10;47.30
70550;DHT22;58101;48.658;2.328;2023-04-03T17:01:48;13.00;47.20
70550;DHT22;58101;48.658;2.328;2023-04-03T17:04:14;13.00;47.20
70550;DHT22;58101;48.658;2.328;2023-04-03T17:06:39;12.90;47.20
70550;DHT22;58101;48.658;2.328;2023-04-03T17:09:05;12.90;47.60
70550;DHT22;58101;48.658;2.328;2023-04-03T17:11:31;12.80;47.70
70550;DHT22;58101;48.658;2.328;2023-04-03T17:13:57;12.70;47.50
70550;DHT22;58101;48.658;2.328;2023-04-03T17:16:24;12.70;46.70
70550;DHT22;58101;48.658;2.328;2023-04-03T17:18:49;12.60;46.60
70550;DHT22;58101;48.658;2.328;2023-04-03T17:21:16;12.80;46.90
70550;DHT22;58101;48.658;2.328;2023-04-03T17:23:44;12.50;47.00
70550;DHT22;58101;48.658;2.328;2023-04-03T17:26:11;12.50;47.00
70550;DHT22;58101;48.658;2.328;2023-04-03T17:28:37;12.40;47.70
70550;DHT22;58101;48.658;2.328;2023-04-03T17:31:05;12.30;47.70
70550;DHT22;58101;48.658;2.328;2023-04-03T17:33:31;12.30;48.70
70550;DHT22;58101;48.658;2.328;2023-04-03T17:35:59;12.30;49.30
70550;DHT22;58101;48.658;2.328;2023-04-03T17:38:26;12.30;49.40
70550;DHT22;58101;48.658;2.328;2023-04-03T17:40:54;12.20;49.70
70550;DHT22;58101;48.658;2.328;2023-04-03T17:43:20;12.20;49.80
70550;DHT22;58101;48.658;2.328;2023-04-03T17:45:46;12.10;49.80
70550;DHT22;58101;48.658;2.328;2023-04-03T17:48:14;12.10;50.30
70550;DHT22;58101;48.658;2.328;2023-04-03T17:50:40;12.00;49.90
70550;DHT22;58101;48.658;2.328;2023-04-03T17:53:05;12.00;50.20
70550;DHT22;58101;48.658;2.328;2023-04-03T17:55:31;11.90;50.50
70550;DHT22;58101;48.658;2.328;2023-04-03T17:57:57;11.80;50.90
70550;DHT22;58101;48.658;2.328;2023-04-03T18:00:22;11.80;51.00
70550;DHT22;58101;48.658;2.328;2023-04-03T18:02:51;11.80;51.00